createdAt,value
2019-01-25T00:00:33.540Z,72.92
2019-01-25T00:03:09.819Z,69.42
2019-01-25T00:05:34.008Z,71.33
2019-01-25T00:08:01.570Z,76.92
2019-01-25T00:10:29.153Z,68.97
2019-01-25T00:12:56.781Z,68.42
2019-01-25T00:15:24.378Z,74.97
2019-01-25T00:17:52.013Z,76.15
2019-01-25T00:20:19.560Z,70.83
2019-01-25T00:22:47.258Z,71.40
2019-01-25T00:25:15.110Z,65.97
2019-01-25T00:27:42.598Z,75.90
2019-01-25T00:30:11.990Z,66.85
2019-01-25T00:32:39.516Z,76.40
2019-01-25T00:35:07.076Z,71.87
2019-01-25T00:37:34.651Z,74.27
2019-01-25T00:40:06.210Z,72.78
2019-01-25T00:42:31.634Z,75.42
2019-01-25T00:44:59.168Z,77.70
2019-01-25T00:47:27.858Z,70.10
2019-01-25T00:49:55.479Z,74.12
2019-01-25T00:52:23.265Z,70.78
2019-01-25T00:54:50.773Z,83.97
2019-01-25T00:57:19.420Z,77.45
2019-01-25T00:59:46.952Z,69.85
2019-01-25T01:02:14.601Z,82.47
2019-01-25T01:04:42.473Z,77.60
2019-01-25T01:07:10.162Z,69.30
2019-01-25T01:09:37.641Z,80.40
2019-01-25T01:12:05.176Z,71.87
2019-01-25T01:14:33.010Z,70.42
2019-01-25T01:17:00.537Z,70.00
2019-01-25T01:19:28.069Z,72.85
2019-01-25T01:21:55.598Z,79.72
2019-01-25T01:24:23.076Z,77.35
2019-01-25T01:26:50.614Z,73.02
2019-01-25T01:29:18.183Z,77.42
2019-01-25T01:31:45.792Z,70.97
2019-01-25T01:34:13.492Z,74.50
2019-01-25T01:36:41.049Z,80.30
2019-01-25T01:39:08.464Z,72.60
2019-01-25T01:41:35.966Z,81.37
2019-01-25T01:44:03.798Z,77.62
2019-01-25T01:46:31.200Z,74.03
2019-01-25T01:48:58.746Z,75.17
2019-01-25T01:51:26.423Z,70.28
2019-01-25T01:53:53.971Z,70.87
2019-01-25T01:56:21.485Z,79.95
2019-01-25T01:58:48.948Z,77.27
2019-01-25T02:01:16.648Z,73.05
2019-01-25T02:03:44.273Z,80.67
2019-01-25T02:06:11.806Z,77.17
2019-01-25T02:08:39.330Z,71.35
2019-01-25T02:11:06.748Z,74.70
2019-01-25T02:13:34.460Z,82.92
2019-01-25T02:16:01.944Z,71.00
2019-01-25T02:18:29.550Z,75.97
2019-01-25T02:20:57.010Z,80.20
2019-01-25T02:23:24.532Z,73.78
2019-01-25T02:25:52.129Z,78.00
2019-01-25T02:28:21.276Z,78.72
2019-01-25T02:30:48.832Z,80.60
2019-01-25T02:33:16.426Z,79.35
2019-01-25T02:35:44.984Z,79.75
2019-01-25T02:38:12.649Z,71.15
2019-01-25T02:40:40.467Z,79.35
2019-01-25T02:43:08.026Z,74.25
2019-01-25T02:45:35.553Z,68.20
2019-01-25T02:48:03.469Z,73.70
2019-01-25T02:50:30.991Z,71.70
2019-01-25T02:53:03.740Z,80.25
2019-01-25T02:55:28.028Z,74.65
2019-01-25T02:57:55.805Z,76.00
2019-01-25T03:00:24.756Z,79.05
2019-01-25T03:02:53.795Z,73.83
2019-01-25T03:05:22.015Z,79.22
2019-01-25T03:07:49.734Z,73.85
2019-01-25T03:10:18.509Z,68.50
2019-01-25T03:12:46.085Z,83.60
2019-01-25T03:15:16.072Z,73.05
2019-01-25T03:17:44.533Z,81.47
2019-01-25T03:20:12.003Z,83.58
2019-01-25T03:22:40.886Z,89.83
2019-01-25T03:25:10.801Z,70.55
2019-01-25T03:27:38.318Z,74.90
2019-01-25T03:30:07.400Z,75.25
2019-01-25T03:32:35.021Z,70.22
2019-01-25T03:35:02.984Z,77.47
2019-01-25T03:37:30.667Z,75.90
2019-01-25T03:39:58.249Z,78.78
2019-01-25T03:42:26.887Z,80.90
2019-01-25T03:44:54.506Z,77.00
2019-01-25T03:47:22.061Z,72.82
2019-01-25T03:49:49.622Z,81.00
2019-01-25T03:52:17.145Z,71.07
2019-01-25T03:54:44.554Z,75.17
2019-01-25T03:57:12.253Z,83.80
2019-01-25T03:59:39.963Z,68.33
2019-01-25T04:02:07.527Z,81.00
2019-01-25T04:04:35.145Z,81.75
2019-01-25T04:07:02.551Z,81.85
2019-01-25T04:09:30.024Z,75.62
2019-01-25T04:11:57.444Z,74.58
2019-01-25T04:14:24.909Z,73.20
2019-01-25T04:16:52.403Z,69.10
2019-01-25T04:19:19.942Z,67.42
2019-01-25T04:21:47.520Z,74.55
2019-01-25T04:24:15.018Z,79.42
2019-01-25T04:26:42.523Z,74.90
2019-01-25T04:29:10.114Z,83.33
2019-01-25T04:31:37.673Z,78.83
2019-01-25T04:34:05.258Z,79.75
2019-01-25T04:36:32.948Z,90.62
2019-01-25T04:39:00.433Z,83.12
2019-01-25T04:41:27.840Z,81.97
2019-01-25T04:43:55.294Z,86.08
2019-01-25T04:46:22.792Z,81.37
2019-01-25T04:48:50.463Z,77.70
2019-01-25T04:51:17.942Z,82.62
2019-01-25T04:53:45.370Z,78.37
2019-01-25T04:56:13.015Z,71.35
2019-01-25T04:58:40.689Z,74.45
2019-01-25T05:01:09.450Z,84.37
2019-01-25T05:03:37.208Z,74.55
2019-01-25T05:06:06.534Z,78.25
2019-01-25T05:08:35.137Z,75.95
2019-01-25T05:11:03.170Z,77.00
2019-01-25T05:13:31.695Z,70.85
2019-01-25T05:15:59.432Z,77.00
2019-01-25T05:18:27.063Z,90.42
2019-01-25T05:20:54.621Z,77.78
2019-01-25T05:23:22.233Z,75.22
2019-01-25T05:25:49.834Z,75.75
2019-01-25T05:28:20.278Z,78.07
2019-01-25T05:31:01.578Z,84.47
2019-01-25T05:33:29.286Z,83.78
2019-01-25T05:35:56.759Z,88.60
2019-01-25T05:38:24.290Z,89.72
2019-01-25T05:40:51.851Z,84.15
2019-01-25T05:43:19.542Z,78.47
2019-01-25T05:45:47.017Z,76.65
2019-01-25T05:48:14.658Z,79.85
2019-01-25T05:50:42.321Z,77.32
2019-01-25T05:53:09.815Z,72.65
2019-01-25T05:55:37.815Z,74.67
2019-01-25T05:58:06.126Z,89.37
2019-01-25T06:00:36.526Z,81.57
2019-01-25T06:03:14.488Z,85.10
2019-01-25T06:05:46.513Z,73.50
2019-01-25T06:08:30.437Z,84.05
2019-01-25T06:11:03.250Z,81.22
2019-01-25T06:13:30.800Z,78.67
2019-01-25T06:15:58.742Z,77.50
2019-01-25T06:18:26.250Z,91.55
2019-01-25T06:20:54.919Z,78.83
2019-01-25T06:23:22.640Z,79.40
2019-01-25T06:25:54.592Z,82.22
2019-01-25T06:28:22.089Z,85.50
2019-01-25T06:30:49.759Z,82.12
2019-01-25T06:33:17.343Z,83.62
2019-01-25T06:35:45.146Z,77.03
2019-01-25T06:38:12.768Z,81.10
2019-01-25T06:40:41.216Z,88.35
2019-01-25T06:43:08.923Z,84.92
2019-01-25T06:45:36.433Z,86.40
2019-01-25T06:48:04.170Z,89.65
2019-01-25T06:50:32.787Z,88.50
2019-01-25T06:53:00.734Z,87.35
2019-01-25T06:55:29.047Z,87.72
2019-01-25T06:58:14.102Z,83.15
2019-01-25T07:00:47.171Z,82.53
2019-01-25T07:03:14.731Z,90.60
2019-01-25T07:05:42.261Z,85.15
2019-01-25T07:08:15.294Z,87.05
2019-01-25T07:10:42.946Z,91.67
2019-01-25T07:13:10.452Z,88.52
2019-01-25T07:15:38.070Z,81.78
2019-01-25T07:18:05.583Z,88.05
2019-01-25T07:20:34.035Z,92.37
2019-01-25T07:23:01.596Z,90.03
2019-01-25T07:25:29.183Z,88.35
2019-01-25T07:27:56.655Z,92.12
2019-01-25T07:30:24.117Z,84.85
2019-01-25T07:32:51.707Z,81.30
2019-01-25T07:35:19.263Z,83.17
2019-01-25T07:37:46.932Z,88.52
2019-01-25T07:40:14.436Z,89.65
2019-01-25T07:42:41.901Z,78.72
2019-01-25T07:45:09.503Z,83.72
2019-01-25T07:47:37.039Z,84.13
2019-01-25T07:50:05.120Z,92.08
2019-01-25T07:52:32.786Z,97.10
2019-01-25T07:55:00.445Z,91.32
2019-01-25T07:57:28.126Z,78.25
2019-01-25T07:59:55.719Z,81.80
2019-01-25T08:02:23.612Z,92.05
2019-01-25T08:04:51.075Z,93.25
2019-01-25T08:07:18.891Z,93.97
2019-01-25T08:09:46.616Z,95.05
2019-01-25T08:12:14.276Z,86.22
2019-01-25T08:14:41.838Z,92.80
2019-01-25T08:17:09.228Z,89.50
2019-01-25T08:19:37.998Z,88.55
2019-01-25T08:22:05.658Z,96.57
2019-01-25T08:24:33.286Z,92.65
2019-01-25T08:27:01.975Z,88.05
2019-01-25T08:29:29.647Z,90.05
2019-01-25T08:31:57.373Z,100.92
2019-01-25T08:34:24.997Z,92.47
2019-01-25T08:36:52.521Z,88.55
2019-01-25T08:39:20.244Z,93.80
2019-01-25T08:41:47.740Z,91.87
2019-01-25T08:44:15.353Z,95.87
2019-01-25T08:46:43.008Z,90.53
2019-01-25T08:49:11.608Z,91.67
2019-01-25T08:51:39.411Z,92.67
2019-01-25T08:54:07.034Z,86.78
2019-01-25T08:56:34.803Z,86.60
2019-01-25T08:59:02.395Z,89.15
2019-01-25T09:01:49.654Z,84.72
2019-01-25T09:04:18.590Z,89.65
2019-01-25T09:06:47.564Z,105.75
2019-01-25T09:09:15.255Z,97.20
2019-01-25T09:11:43.132Z,89.20
2019-01-25T09:14:10.709Z,100.85
2019-01-25T09:16:39.355Z,88.55
2019-01-25T09:19:06.857Z,98.47
2019-01-25T09:21:34.491Z,90.83
2019-01-25T09:24:02.193Z,90.55
2019-01-25T09:26:29.835Z,92.92
2019-01-25T09:28:57.410Z,93.70
2019-01-25T09:31:24.784Z,83.20
2019-01-25T09:33:52.293Z,86.95
2019-01-25T09:36:19.872Z,96.78
2019-01-25T09:38:47.957Z,84.72
2019-01-25T09:41:15.473Z,94.80
2019-01-25T09:43:43.094Z,79.60
2019-01-25T09:46:10.792Z,78.67
2019-01-25T09:48:38.309Z,86.47
2019-01-25T09:51:06.019Z,84.10
2019-01-25T09:53:33.652Z,95.42
2019-01-25T09:56:01.222Z,80.80
2019-01-25T09:58:28.682Z,84.17
2019-01-25T10:01:02.610Z,80.80
2019-01-25T10:03:30.134Z,87.88
2019-01-25T10:05:57.711Z,77.50
2019-01-25T10:08:25.401Z,89.03
2019-01-25T10:10:53.079Z,82.57
2019-01-25T10:13:20.656Z,82.17
2019-01-25T10:15:48.306Z,79.37
2019-01-25T10:18:15.818Z,72.08
2019-01-25T10:20:43.462Z,72.10
2019-01-25T10:23:11.133Z,71.45
2019-01-25T10:25:38.750Z,80.05
2019-01-25T10:28:06.349Z,73.47
2019-01-25T10:30:33.950Z,72.55
2019-01-25T10:33:01.528Z,60.65
2019-01-25T10:35:29.094Z,74.75
2019-01-25T10:37:57.559Z,71.02
2019-01-25T10:40:24.978Z,63.73
2019-01-25T10:42:53.398Z,68.80
2019-01-25T10:48:12.146Z,60.98
2019-01-25T10:50:39.923Z,68.22
2019-01-25T10:53:08.466Z,61.27
2019-01-25T10:55:36.208Z,66.02
2019-01-25T10:58:04.752Z,64.95
2019-01-25T11:00:32.220Z,64.07
2019-01-25T11:02:59.873Z,59.75
2019-01-25T11:05:27.831Z,63.08
2019-01-25T11:07:55.288Z,69.35
2019-01-25T11:10:22.809Z,69.60
2019-01-25T11:12:50.294Z,71.40
2019-01-25T11:15:19.845Z,68.65
2019-01-25T11:17:48.573Z,73.90
2019-01-25T11:20:17.984Z,73.33
2019-01-25T11:22:45.373Z,66.00
2019-01-25T11:25:16.092Z,69.03
2019-01-25T11:27:43.626Z,69.27
2019-01-25T11:30:12.241Z,80.85
2019-01-25T11:32:39.711Z,67.67
2019-01-25T11:35:07.232Z,69.37
2019-01-25T11:37:35.024Z,77.25
2019-01-25T11:40:04.552Z,61.13
2019-01-25T11:42:32.130Z,64.25
2019-01-25T11:44:59.643Z,69.92
2019-01-25T11:47:27.690Z,60.03
2019-01-25T11:49:55.152Z,74.58
2019-01-25T11:52:25.152Z,68.40
2019-01-25T11:54:52.049Z,62.73
2019-01-25T11:57:20.821Z,68.33
2019-01-25T11:59:48.495Z,75.40
2019-01-25T12:02:20.856Z,65.50
2019-01-25T12:04:45.840Z,73.67
2019-01-25T12:07:13.301Z,72.50
2019-01-25T12:09:40.820Z,70.87
2019-01-25T12:12:08.334Z,68.80
2019-01-25T12:14:35.859Z,62.87
2019-01-25T12:17:03.766Z,68.97
2019-01-25T12:19:31.276Z,77.33
2019-01-25T12:21:58.862Z,64.77
2019-01-25T12:24:26.476Z,65.37
2019-01-25T12:26:54.256Z,66.13
2019-01-25T12:29:21.869Z,69.60
2019-01-25T12:31:49.526Z,66.13
2019-01-25T12:34:17.092Z,66.90
2019-01-25T12:36:44.643Z,70.33
2019-01-25T12:39:12.318Z,72.30
2019-01-25T12:41:40.090Z,69.23
2019-01-25T12:44:07.708Z,71.40
2019-01-25T12:46:35.591Z,68.23
2019-01-25T12:49:03.391Z,72.30
2019-01-25T12:51:39.625Z,68.50
2019-01-25T12:54:07.110Z,68.37
2019-01-25T12:56:34.778Z,71.37
2019-01-25T12:59:02.734Z,62.83
2019-01-25T13:01:34.929Z,61.53
2019-01-25T13:03:59.735Z,72.17
2019-01-25T13:06:28.180Z,73.27
2019-01-25T13:08:55.674Z,73.80
2019-01-25T13:11:23.318Z,74.33
2019-01-25T13:13:50.883Z,70.33
2019-01-25T13:16:18.451Z,67.37
2019-01-25T13:18:45.898Z,71.07
2019-01-25T13:21:13.495Z,68.60
2019-01-25T13:23:41.037Z,69.87
2019-01-25T13:26:08.490Z,71.60
2019-01-25T13:28:36.083Z,67.53
2019-01-25T13:31:03.958Z,61.67
2019-01-25T13:33:31.507Z,70.90
2019-01-25T13:35:58.914Z,63.30
2019-01-25T13:38:26.276Z,68.23
2019-01-25T13:40:53.692Z,71.63
2019-01-25T13:43:21.432Z,65.00
2019-01-25T13:45:48.968Z,65.83
2019-01-25T13:48:16.417Z,67.63
2019-01-25T13:50:44.114Z,61.53
2019-01-25T13:53:11.534Z,72.17
2019-01-25T13:55:39.315Z,68.07
2019-01-25T13:58:11.915Z,58.03
2019-01-25T14:00:39.497Z,67.90
2019-01-25T14:03:07.038Z,57.70
2019-01-25T14:05:34.595Z,64.50
2019-01-25T14:08:02.446Z,62.63
2019-01-25T14:10:32.604Z,61.97
2019-01-25T14:13:00.230Z,59.23
2019-01-25T14:15:28.774Z,50.80
2019-01-25T14:17:56.447Z,55.07
2019-01-25T14:20:25.820Z,59.17
2019-01-25T14:22:53.549Z,52.37
2019-01-25T14:25:21.166Z,47.80
2019-01-25T14:27:49.438Z,55.20
2019-01-25T14:30:38.214Z,54.03
2019-01-25T14:33:06.040Z,62.17
2019-01-25T14:35:33.438Z,63.97
2019-01-25T14:38:01.119Z,52.80
2019-01-25T14:40:28.778Z,56.00
2019-01-25T14:42:56.556Z,57.43
2019-01-25T14:45:24.132Z,63.52
2019-01-25T14:47:51.663Z,61.27
2019-01-25T14:50:20.788Z,52.90
2019-01-25T14:52:48.365Z,55.00
2019-01-25T14:55:18.134Z,56.93
2019-01-25T14:57:45.714Z,51.92
2019-01-25T15:00:14.236Z,51.00
2019-01-25T15:02:45.174Z,54.60
2019-01-25T15:05:15.578Z,57.37
2019-01-25T15:07:43.243Z,56.80
2019-01-25T15:10:13.812Z,55.60
2019-01-25T15:12:41.395Z,56.93
2019-01-25T15:15:11.100Z,57.83
2019-01-25T15:17:39.045Z,56.80
2019-01-25T15:20:21.188Z,59.27
2019-01-25T15:23:01.948Z,55.90
2019-01-25T15:25:31.919Z,57.75
2019-01-25T15:27:59.530Z,54.83
2019-01-25T15:30:28.802Z,50.40
2019-01-25T15:32:56.382Z,53.00
2019-01-25T15:35:23.942Z,59.53
2019-01-25T15:37:51.760Z,55.47
2019-01-25T15:40:19.721Z,57.65
2019-01-25T15:43:07.581Z,58.83
2019-01-25T15:45:35.155Z,68.00
2019-01-25T15:48:03.300Z,57.83
2019-01-25T15:50:32.040Z,59.47
2019-01-25T15:53:02.619Z,59.53
2019-01-25T15:55:49.695Z,62.43
2019-01-25T15:58:17.286Z,58.63
2019-01-25T16:00:47.873Z,58.23
2019-01-25T16:03:15.528Z,63.83
2019-01-25T16:05:43.304Z,66.47
2019-01-25T16:08:11.076Z,59.40
2019-01-25T16:10:49.209Z,58.63
2019-01-25T16:13:16.784Z,63.13
2019-01-25T16:15:44.328Z,53.98
2019-01-25T16:18:13.968Z,57.13
2019-01-25T16:20:42.433Z,57.33
2019-01-25T16:23:10.132Z,55.77
2019-01-25T16:25:37.863Z,50.00
2019-01-25T16:28:05.486Z,49.15
2019-01-25T16:30:37.665Z,58.75
2019-01-25T16:33:05.347Z,47.08
2019-01-25T16:35:32.904Z,47.93
2019-01-25T16:38:00.827Z,45.28
2019-01-25T16:40:28.943Z,44.97
2019-01-25T16:42:56.544Z,45.17
2019-01-25T16:45:26.635Z,44.83
2019-01-25T16:47:56.219Z,50.80
2019-01-25T16:50:24.124Z,47.95
2019-01-25T16:52:51.919Z,38.40
2019-01-25T16:55:19.543Z,44.95
2019-01-25T16:57:49.152Z,40.97
2019-01-25T17:00:22.496Z,42.73
2019-01-25T17:02:50.090Z,41.20
2019-01-25T17:05:17.881Z,33.75
2019-01-25T17:07:45.561Z,44.40
2019-01-25T17:10:14.600Z,39.98
2019-01-25T17:12:42.383Z,44.45
2019-01-25T17:15:13.253Z,47.47
2019-01-25T17:17:40.823Z,44.17
2019-01-25T17:20:20.086Z,47.40
2019-01-25T17:22:43.807Z,47.43
2019-01-25T17:25:11.887Z,41.53
2019-01-25T17:27:39.872Z,37.58
2019-01-25T17:30:15.303Z,43.87
2019-01-25T17:32:42.923Z,41.92
2019-01-25T17:35:10.936Z,47.03
2019-01-25T17:37:40.753Z,48.70
2019-01-25T17:40:11.992Z,42.60
2019-01-25T17:42:39.520Z,45.77
2019-01-25T17:45:08.079Z,51.85
2019-01-25T17:47:35.491Z,59.05
2019-01-25T17:50:04.110Z,46.37
2019-01-25T17:52:31.738Z,51.55
2019-01-25T17:54:59.251Z,53.57
2019-01-25T17:57:26.985Z,54.38
2019-01-25T17:59:54.917Z,52.60
2019-01-25T18:02:22.982Z,56.53
2019-01-25T18:04:53.347Z,56.17
2019-01-25T18:07:20.878Z,41.40
2019-01-25T18:09:48.321Z,57.30
2019-01-25T18:12:15.986Z,52.00
2019-01-25T18:14:49.197Z,53.55
2019-01-25T18:17:13.894Z,49.40
2019-01-25T18:19:41.446Z,48.53
2019-01-25T18:22:09.137Z,55.33
2019-01-25T18:24:36.758Z,58.55
2019-01-25T18:27:04.335Z,56.00
2019-01-25T18:29:42.202Z,59.93
2019-01-25T18:32:10.255Z,56.37
2019-01-25T18:34:38.162Z,52.70
2019-01-25T18:37:05.748Z,58.78
2019-01-25T18:39:33.572Z,55.00
2019-01-25T18:42:01.164Z,58.63
2019-01-25T18:44:28.829Z,66.77
2019-01-25T18:47:01.558Z,56.70
2019-01-25T18:49:29.199Z,69.17
2019-01-25T18:51:56.720Z,62.50
2019-01-25T18:54:24.238Z,61.87
2019-01-25T18:56:52.790Z,66.37
2019-01-25T18:59:20.275Z,64.90
2019-01-25T19:01:47.732Z,76.28
2019-01-25T19:04:15.333Z,78.17
2019-01-25T19:06:43.339Z,81.30
2019-01-25T19:09:11.531Z,73.13
2019-01-25T19:11:39.301Z,70.53
2019-01-25T19:14:06.861Z,71.90
2019-01-25T19:16:34.293Z,69.70
2019-01-25T19:19:01.870Z,84.67
2019-01-25T19:21:29.551Z,79.67
2019-01-25T19:23:57.496Z,80.57
2019-01-25T19:26:25.039Z,86.07
2019-01-25T19:28:52.569Z,68.23
2019-01-25T19:31:20.176Z,94.23
2019-01-25T19:33:47.710Z,80.87
2019-01-25T19:36:15.324Z,79.50
2019-01-25T19:38:42.891Z,81.37
2019-01-25T19:41:13.811Z,84.47
2019-01-25T19:43:41.505Z,80.83
2019-01-25T19:46:09.095Z,78.80
2019-01-25T19:48:36.802Z,86.03
2019-01-25T19:51:04.669Z,79.50
2019-01-25T19:53:32.683Z,85.27
2019-01-25T19:56:00.131Z,86.73
2019-01-25T19:58:27.819Z,84.17
2019-01-25T20:00:55.818Z,69.47
2019-01-25T20:03:23.378Z,78.30
2019-01-25T20:05:50.774Z,68.07
2019-01-25T20:08:18.274Z,68.63
2019-01-25T20:10:46.050Z,68.20
2019-01-25T20:13:13.838Z,63.07
2019-01-25T20:15:41.651Z,63.63
2019-01-25T20:18:11.121Z,63.83
2019-01-25T20:20:39.240Z,57.47
2019-01-25T20:23:07.104Z,60.50
2019-01-25T20:25:34.738Z,67.37
2019-01-25T20:28:03.327Z,62.57
2019-01-25T20:30:31.247Z,59.80
2019-01-25T20:33:00.454Z,56.80
2019-01-25T20:35:31.277Z,65.50
2019-01-25T20:37:59.001Z,57.40
2019-01-25T20:40:26.908Z,58.30
2019-01-25T20:42:57.235Z,51.47
2019-01-25T20:45:32.651Z,56.30
2019-01-25T20:48:00.095Z,56.70
2019-01-25T20:50:33.502Z,60.63
2019-01-25T20:53:01.216Z,57.93
2019-01-25T20:55:29.381Z,59.73
2019-01-25T20:57:58.223Z,53.00
2019-01-25T21:00:29.061Z,57.83
2019-01-25T21:02:56.814Z,59.83
2019-01-25T21:05:25.801Z,58.13
2019-01-25T21:07:53.356Z,49.70
2019-01-25T21:10:21.761Z,57.00
2019-01-25T21:12:49.349Z,59.17
2019-01-25T21:15:18.719Z,50.93
2019-01-25T21:17:46.273Z,50.60
2019-01-25T21:20:19.550Z,51.80
2019-01-25T21:22:47.025Z,53.97
2019-01-25T21:25:14.843Z,49.73
2019-01-25T21:27:42.447Z,53.80
2019-01-25T21:30:13.490Z,53.77
2019-01-25T21:32:41.348Z,52.03
2019-01-25T21:35:09.190Z,50.93
2019-01-25T21:37:38.727Z,54.27
2019-01-25T21:40:19.689Z,59.70
2019-01-25T21:43:07.610Z,39.87
2019-01-25T21:46:27.007Z,47.87
2019-01-25T21:49:32.600Z,44.20
2019-01-25T21:52:16.629Z,44.50
2019-01-25T21:55:11.314Z,46.80
2019-01-25T21:57:53.175Z,45.00
2019-01-25T22:01:04.118Z,38.67
2019-01-25T22:03:32.294Z,41.30
2019-01-25T22:05:59.815Z,39.30
2019-01-25T22:08:45.828Z,40.00
2019-01-25T22:11:45.589Z,43.13
2019-01-25T22:14:28.475Z,40.73
2019-01-25T22:20:42.279Z,38.67
2019-01-25T22:23:10.112Z,32.13
2019-01-25T22:26:06.257Z,38.40
2019-01-25T22:28:33.851Z,33.03
2019-01-25T22:31:01.526Z,31.17
2019-01-25T22:33:29.947Z,33.87
2019-01-25T22:35:58.186Z,31.47
2019-01-25T22:38:29.321Z,29.97
2019-01-25T22:40:59.056Z,32.40
2019-01-25T22:43:29.945Z,34.23
2019-01-25T22:45:59.017Z,28.97
2019-01-25T22:48:46.432Z,28.03
2019-01-25T22:51:25.824Z,30.73
2019-01-25T22:53:54.999Z,31.70
2019-01-25T22:56:42.318Z,25.40
2019-01-25T22:59:10.465Z,27.10
2019-01-25T23:01:40.035Z,28.27
2019-01-25T23:04:47.070Z,27.47
2019-01-25T23:07:24.649Z,29.57
2019-01-25T23:10:17.019Z,30.87
2019-01-25T23:12:44.667Z,25.63
2019-01-25T23:15:17.687Z,30.20
2019-01-25T23:17:47.883Z,26.20
2019-01-25T23:20:15.904Z,26.17
2019-01-25T23:22:43.408Z,28.33
2019-01-25T23:25:13.401Z,30.60
2019-01-25T23:27:40.924Z,30.00
2019-01-25T23:30:16.468Z,29.27
2019-01-25T23:32:44.048Z,29.07
2019-01-25T23:35:11.555Z,32.77
2019-01-25T23:37:39.023Z,30.33
2019-01-25T23:40:10.159Z,30.47
2019-01-25T23:42:37.683Z,29.10
2019-01-25T23:45:06.569Z,35.50
2019-01-25T23:47:34.099Z,30.70
2019-01-25T23:50:21.142Z,31.13
2019-01-25T23:52:48.606Z,32.50
2019-01-25T23:55:16.354Z,34.60
2019-01-25T23:57:44.545Z,30.87
